Time;durP1;ratioP1;P1;durP2;ratioP2;P2;SDS_P1;SDS_P2;PMS_P1;PMS_P2;Temp;Humidity;BMP_temperature;BMP_pressure;BME280_temperature;BME280_humidity;BME280_pressure;Samples;Min_cycle;Max_cycle;Signal;HPM_P1;HPM_P2
2021/01/11 00:02:23;;;;;;;11.53;6.63;;;5.90;99.90;;;;;;5119557;28;20039;-55
2021/01/11 00:04:48;;;;;;;10.90;5.63;;;6.00;99.90;;;;;;5119554;28;20035;-55
2021/01/11 00:07:15;;;;;;;11.13;5.57;;;6.00;99.90;;;;;;5119846;28;20084;-55
2021/01/11 00:09:40;;;;;;;11.70;5.97;;;6.00;99.90;;;;;;5101052;28;20042;-55
2021/01/11 00:12:06;;;;;;;12.27;6.83;;;6.00;99.90;;;;;;5118966;28;20469;-56
2021/01/11 00:14:32;;;;;;;14.57;7.07;;;6.00;99.90;;;;;;5100884;28;20126;-56
2021/01/11 00:16:58;;;;;;;13.60;6.07;;;6.00;99.90;;;;;;5119366;28;20158;-56
2021/01/11 00:19:23;;;;;;;15.93;6.07;;;6.00;99.90;;;;;;5119286;28;20055;-56
2021/01/11 00:21:49;;;;;;;13.47;6.40;;;6.10;99.90;;;;;;5098760;28;20039;-56
2021/01/11 00:24:15;;;;;;;11.90;6.27;;;6.00;99.90;;;;;;5098959;28;20032;-56
2021/01/11 00:26:52;;;;;;;8.43;5.73;;;6.10;99.90;;;;;;5098477;28;19912;-55
2021/01/11 00:29:21;;;;;;;10.45;5.75;;;6.10;99.90;;;;;;5098354;28;20023;-56
2021/01/11 00:31:47;;;;;;;11.43;5.63;;;6.20;99.90;;;;;;5098686;28;20418;-56
2021/01/11 00:34:13;;;;;;;9.20;5.53;;;6.20;99.90;;;;;;5097730;28;20137;-56
2021/01/11 00:36:39;;;;;;;10.27;7.00;;;6.20;99.90;;;;;;5098169;28;20036;-55
2021/01/11 00:39:05;;;;;;;14.77;6.13;;;6.20;99.90;;;;;;5098541;28;20032;-56
2021/01/11 00:41:31;;;;;;;10.13;5.50;;;6.20;99.90;;;;;;5098587;28;20406;-56
2021/01/11 00:43:56;;;;;;;11.73;6.17;;;6.20;99.90;;;;;;5100618;28;20058;-55
2021/01/11 00:46:27;;;;;;;10.13;5.90;;;6.20;99.90;;;;;;5118043;28;20032;-55
2021/01/11 00:48:53;;;;;;;8.03;4.87;;;6.20;99.90;;;;;;5118690;28;20019;-55
2021/01/11 00:51:19;;;;;;;10.50;5.37;;;6.30;99.90;;;;;;5118850;28;20084;-55
2021/01/11 00:53:44;;;;;;;10.03;5.27;;;6.30;99.90;;;;;;5118551;28;20106;-55
2021/01/11 00:56:18;;;;;;;7.43;4.97;;;6.30;99.90;;;;;;5118799;28;20024;-56
2021/01/11 00:58:44;;;;;;;11.27;4.53;;;6.30;99.90;;;;;;5117576;28;20024;-56
2021/01/11 01:01:12;;;;;;;8.67;4.70;;;6.30;99.90;;;;;;5118091;28;20062;-55
2021/01/11 01:03:39;;;;;;;6.97;4.70;;;6.30;99.90;;;;;;5118234;28;20027;-56
2021/01/11 01:06:12;;;;;;;7.40;4.77;;;6.30;99.90;;;;;;5100138;28;20489;-56
2021/01/11 01:08:37;;;;;;;7.22;4.30;;;6.30;99.90;;;;;;5118032;28;20303;-55
2021/01/11 01:11:04;;;;;;;7.80;4.20;;;6.30;99.90;;;;;;5118136;28;20110;-55
2021/01/11 01:13:29;;;;;;;10.33;5.37;;;6.30;99.90;;;;;;5099621;28;20028;-55
2021/01/11 01:15:55;;;;;;;7.50;4.10;;;6.30;99.90;;;;;;5118145;28;20027;-55
2021/01/11 01:18:21;;;;;;;7.80;4.40;;;6.40;99.90;;;;;;5083094;28;20031;-55
2021/01/11 01:20:47;;;;;;;9.23;5.00;;;6.30;99.90;;;;;;5082644;28;20441;-55
2021/01/11 01:23:13;;;;;;;9.30;5.65;;;6.30;99.90;;;;;;5117582;28;20315;-55
2021/01/11 01:25:38;;;;;;;11.50;6.73;;;6.20;99.90;;;;;;5099678;28;20038;-55
2021/01/11 01:28:04;;;;;;;11.07;6.67;;;6.30;99.90;;;;;;5118272;28;19908;-55
2021/01/11 01:30:30;;;;;;;10.43;6.37;;;6.30;99.90;;;;;;5099230;28;20452;-55
2021/01/11 01:32:56;;;;;;;10.90;7.23;;;6.20;99.90;;;;;;5117941;28;20133;-56
2021/01/11 01:35:21;;;;;;;13.73;8.17;;;6.30;99.90;;;;;;5117240;28;20346;-55
2021/01/11 01:37:47;;;;;;;12.17;7.20;;;6.30;99.90;;;;;;5117933;28;20031;-55
2021/01/11 01:40:13;;;;;;;13.03;7.13;;;6.20;99.90;;;;;;5117510;28;20402;-55
2021/01/11 01:42:39;;;;;;;11.73;6.83;;;6.20;99.90;;;;;;5117476;28;20034;-55
2021/01/11 01:45:06;;;;;;;10.67;6.50;;;6.20;99.90;;;;;;5117593;28;20034;-55
2021/01/11 01:47:32;;;;;;;10.77;7.57;;;6.20;99.90;;;;;;5117629;28;20073;-56
2021/01/11 01:49:59;;;;;;;12.60;6.97;;;6.20;99.90;;;;;;5099588;28;20051;-55
2021/01/11 01:52:25;;;;;;;11.40;6.55;;;6.20;99.90;;;;;;5117436;28;20020;-55
2021/01/11 01:54:50;;;;;;;10.53;6.60;;;6.20;99.90;;;;;;5117648;28;20055;-55
2021/01/11 01:57:18;;;;;;;13.00;5.77;;;6.20;99.90;;;;;;5117234;28;20038;-55
2021/01/11 01:59:47;;;;;;;8.27;5.27;;;6.20;99.90;;;;;;5117512;28;20352;-56
2021/01/11 02:02:14;;;;;;;6.93;5.03;;;6.20;99.90;;;;;;5117198;28;20031;-55
2021/01/11 02:04:43;;;;;;;6.93;4.70;;;6.20;99.90;;;;;;5117228;28;20055;-55
2021/01/11 02:07:44;;;;;;;8.75;4.55;;;6.20;99.90;;;;;;5117306;28;20032;-56
2021/01/11 02:10:24;;;;;;;10.20;4.53;;;6.20;99.90;;;;;;5090789;28;20114;-56
2021/01/11 02:12:59;;;;;;;7.13;4.57;;;6.20;99.90;;;;;;5117374;28;20026;-56
2021/01/11 02:15:38;;;;;;;10.60;4.30;;;6.20;99.90;;;;;;5117676;28;20051;-56
2021/01/11 02:18:09;;;;;;;7.33;3.77;;;6.20;99.90;;;;;;5116689;28;20015;-54
2021/01/11 02:20:53;;;;;;;6.97;4.30;;;6.20;99.90;;;;;;5107396;28;20336;-57
2021/01/11 02:23:34;;;;;;;6.20;3.30;;;6.20;99.90;;;;;;5078774;28;20091;-55
2021/01/11 02:26:35;;;;;;;6.00;3.65;;;6.20;99.90;;;;;;5096764;28;20031;-56
2021/01/11 02:29:53;;;;;;;5.90;4.17;;;6.20;99.90;;;;;;5096820;28;20024;-56
2021/01/11 02:32:21;;;;;;;5.90;3.53;;;6.20;99.90;;;;;;5054621;28;20430;-56
2021/01/11 02:34:48;;;;;;;5.47;3.40;;;6.20;99.90;;;;;;5087961;28;20057;-55
2021/01/11 02:37:15;;;;;;;7.33;3.13;;;6.20;99.90;;;;;;5056970;28;20208;-56
2021/01/11 02:39:41;;;;;;;5.73;3.20;;;6.20;99.90;;;;;;5056171;28;20029;-55
2021/01/11 02:42:07;;;;;;;4.43;2.20;;;6.20;99.90;;;;;;5056102;28;20340;-56
2021/01/11 02:44:32;;;;;;;5.63;2.00;;;6.30;99.90;;;;;;5056580;28;20331;-56
2021/01/11 02:46:58;;;;;;;5.13;2.60;;;6.30;99.90;;;;;;5055901;28;20040;-55
2021/01/11 02:49:27;;;;;;;6.10;2.10;;;6.40;99.90;;;;;;5056336;28;20431;-55
2021/01/11 02:52:12;;;;;;;3.77;2.07;;;6.40;99.90;;;;;;5056243;28;20024;-56
2021/01/11 02:54:55;;;;;;;4.00;2.13;;;6.40;99.90;;;;;;5056328;28;20028;-55
2021/01/11 02:57:31;;;;;;;5.63;2.30;;;6.40;99.90;;;;;;5056020;28;20040;-56
2021/01/11 03:00:06;;;;;;;5.83;2.27;;;6.40;99.90;;;;;;5056052;28;20029;-55
2021/01/11 03:02:35;;;;;;;4.77;1.57;;;6.40;99.90;;;;;;5056218;28;20355;-55
2021/01/11 03:05:02;;;;;;;4.37;1.50;;;6.50;99.90;;;;;;5056217;28;20028;-55
2021/01/11 03:07:27;;;;;;;2.17;1.20;;;6.50;99.90;;;;;;5055741;28;20037;-54
2021/01/11 03:09:53;;;;;;;2.83;1.30;;;6.50;99.90;;;;;;5056323;28;20346;-55
2021/01/11 03:12:19;;;;;;;3.87;1.57;;;6.50;99.90;;;;;;5055804;28;20332;-55
2021/01/11 03:14:44;;;;;;;3.80;1.83;;;6.40;99.90;;;;;;5055991;28;20027;-55
2021/01/11 03:17:10;;;;;;;3.07;1.77;;;6.50;99.90;;;;;;5055810;28;20342;-54
2021/01/11 03:19:36;;;;;;;3.70;1.40;;;6.60;99.90;;;;;;5054400;28;20029;-54
2021/01/11 03:22:02;;;;;;;4.77;1.20;;;6.60;99.90;;;;;;5057020;28;20066;-55
2021/01/11 03:24:28;;;;;;;4.60;2.03;;;6.60;99.90;;;;;;5059635;28;20024;-55
2021/01/11 03:26:58;;;;;;;2.47;1.20;;;6.70;99.90;;;;;;5059801;28;20330;-55
2021/01/11 03:29:24;;;;;;;3.07;1.00;;;6.70;99.90;;;;;;5059454;28;20462;-55
2021/01/11 03:31:49;;;;;;;4.30;1.10;;;6.80;99.90;;;;;;5074170;28;20040;-55
2021/01/11 03:34:15;;;;;;;4.30;1.20;;;6.80;99.90;;;;;;5078923;28;20024;-55
2021/01/11 03:36:42;;;;;;;1.90;0.93;;;6.80;99.90;;;;;;5108291;28;20055;-55
2021/01/11 03:39:09;;;;;;;2.17;0.70;;;6.80;99.90;;;;;;5119850;28;20035;-55
2021/01/11 03:41:36;;;;;;;2.37;1.03;;;6.80;99.90;;;;;;5119599;28;20027;-54
2021/01/11 03:44:01;;;;;;;3.50;0.80;;;6.70;99.90;;;;;;5119762;28;20028;-55
2021/01/11 03:46:29;;;;;;;5.67;1.37;;;6.70;99.90;;;;;;5119785;28;20425;-54
2021/01/11 03:48:55;;;;;;;1.23;0.63;;;6.70;99.90;;;;;;5120143;28;20017;-54
2021/01/11 03:51:21;;;;;;;2.40;1.00;;;6.80;99.90;;;;;;5120087;28;20019;-55
2021/01/11 03:53:46;;;;;;;3.33;1.47;;;6.70;99.90;;;;;;5119523;28;20286;-54
2021/01/11 03:56:12;;;;;;;1.87;0.70;;;6.70;99.90;;;;;;5119588;28;20020;-55
2021/01/11 03:58:38;;;;;;;2.00;0.70;;;6.70;99.90;;;;;;5101519;28;20023;-54
2021/01/11 04:01:04;;;;;;;2.17;1.37;;;6.70;99.90;;;;;;5119697;28;20027;-54
2021/01/11 04:03:30;;;;;;;5.03;1.17;;;6.70;99.90;;;;;;5120033;28;20027;-54
2021/01/11 04:05:57;;;;;;;1.80;0.70;;;6.60;99.90;;;;;;5119080;28;20421;-55
2021/01/11 04:08:23;;;;;;;2.77;0.90;;;6.70;99.90;;;;;;5119174;28;20034;-55
2021/01/11 04:10:49;;;;;;;1.60;0.70;;;6.70;99.90;;;;;;5119554;28;20047;-55
2021/01/11 04:13:16;;;;;;;1.87;0.60;;;6.70;99.90;;;;;;5119604;28;20421;-55
2021/01/11 04:15:41;;;;;;;2.33;1.13;;;6.70;99.90;;;;;;5100623;28;20275;-55
2021/01/11 04:18:07;;;;;;;2.43;0.60;;;6.70;99.90;;;;;;5101063;28;20057;-56
2021/01/11 04:20:33;;;;;;;2.35;0.65;;;6.70;99.90;;;;;;5119012;28;20309;-54
2021/01/11 04:22:59;;;;;;;3.03;0.53;;;6.90;99.90;;;;;;5119043;28;20028;-55
2021/01/11 04:25:25;;;;;;;2.97;0.77;;;6.80;99.90;;;;;;5118996;28;20350;-55
2021/01/11 04:28:01;;;;;;;4.33;0.67;;;6.80;99.90;;;;;;5119044;28;20032;-55
2021/01/11 04:30:27;;;;;;;3.87;0.93;;;6.70;99.90;;;;;;5118916;28;20032;-55
2021/01/11 04:32:53;;;;;;;1.67;0.77;;;6.60;99.90;;;;;;5118821;28;20068;-55
2021/01/11 04:35:21;;;;;;;4.33;0.60;;;6.60;99.90;;;;;;5118100;28;20055;-55
2021/01/11 04:37:47;;;;;;;1.33;0.70;;;6.50;99.90;;;;;;5119510;28;20027;-55
2021/01/11 04:40:13;;;;;;;6.60;0.90;;;6.60;99.90;;;;;;5118521;28;20097;-55
2021/01/11 04:43:18;;;;;;;3.00;0.60;;;6.50;99.90;;;;;;5119008;28;20043;-55
2021/01/11 04:45:44;;;;;;;2.17;1.07;;;6.40;99.90;;;;;;5100558;28;20350;-55
2021/01/11 04:48:12;;;;;;;1.33;0.80;;;6.40;99.90;;;;;;5118498;28;20035;-55
2021/01/11 04:50:38;;;;;;;5.40;1.10;;;6.40;99.90;;;;;;5118804;28;20402;-55
2021/01/11 04:53:09;;;;;;;9.97;1.73;;;6.40;99.90;;;;;;5118244;28;20318;-55
2021/01/11 04:55:39;;;;;;;3.33;1.37;;;6.50;99.90;;;;;;5118691;28;20051;-55
2021/01/11 04:58:09;;;;;;;1.63;0.50;;;6.50;99.90;;;;;;5118613;28;20019;-55
2021/01/11 05:00:37;;;;;;;3.40;0.50;;;6.40;99.90;;;;;;5118571;28;20024;-55
2021/01/11 05:03:04;;;;;;;1.50;0.70;;;6.40;99.90;;;;;;5118242;28;20027;-55
2021/01/11 05:05:35;;;;;;;2.27;0.50;;;6.60;99.90;;;;;;5118008;28;20054;-55
2021/01/11 05:08:01;;;;;;;2.60;0.60;;;6.60;99.90;;;;;;5118706;28;20353;-55
2021/01/11 05:10:29;;;;;;;1.77;0.47;;;6.70;99.90;;;;;;5117965;28;20031;-55
2021/01/11 05:13:05;;;;;;;8.67;1.10;;;6.80;99.90;;;;;;5118055;28;20080;-55
2021/01/11 05:15:35;;;;;;;3.13;0.40;;;6.80;99.90;;;;;;5117854;28;20379;-55
2021/01/11 05:18:02;;;;;;;3.20;0.40;;;6.80;99.90;;;;;;5118010;28;20020;-55
2021/01/11 05:20:34;;;;;;;1.93;0.50;;;6.90;99.90;;;;;;5109599;28;20031;-55
2021/01/11 05:23:08;;;;;;;5.17;0.80;;;6.80;99.90;;;;;;5097803;28;20350;-55
2021/01/11 05:25:36;;;;;;;5.90;1.53;;;6.80;99.90;;;;;;5097292;28;20019;-55
2021/01/11 05:28:05;;;;;;;2.27;0.80;;;6.80;99.90;;;;;;5097972;28;20063;-55
2021/01/11 05:30:36;;;;;;;4.80;0.90;;;6.80;99.90;;;;;;5097396;28;20054;-55
2021/01/11 05:33:03;;;;;;;5.87;1.30;;;6.70;99.90;;;;;;5097533;28;20024;-55
2021/01/11 05:35:29;;;;;;;2.93;0.73;;;6.60;99.90;;;;;;5097361;28;20430;-55
2021/01/11 05:37:55;;;;;;;2.50;0.70;;;6.70;99.90;;;;;;5097511;28;20059;-55
2021/01/11 05:40:24;;;;;;;4.53;0.93;;;6.70;99.90;;;;;;5097295;28;20077;-55
2021/01/11 05:42:52;;;;;;;4.67;0.93;;;6.70;99.90;;;;;;5117627;28;20227;-55
2021/01/11 05:45:30;;;;;;;2.87;0.97;;;6.80;99.90;;;;;;5117698;28;20364;-55
2021/01/11 05:47:59;;;;;;;4.40;1.70;;;6.80;99.90;;;;;;5117804;28;20024;-55
2021/01/11 05:50:58;;;;;;;3.10;1.00;;;6.80;99.90;;;;;;5117371;28;20060;-55
2021/01/11 05:53:25;;;;;;;5.37;1.20;;;6.80;99.90;;;;;;5095480;28;20062;-55
2021/01/11 05:55:54;;;;;;;2.90;0.83;;;6.80;99.90;;;;;;5117215;28;20157;-55
2021/01/11 05:58:21;;;;;;;3.57;1.30;;;6.90;99.90;;;;;;5117308;28;20031;-55
2021/01/11 06:00:47;;;;;;;3.80;1.30;;;6.90;99.90;;;;;;5117200;28;20080;-55
2021/01/11 06:03:13;;;;;;;3.13;1.03;;;7.00;99.90;;;;;;5116910;28;20062;-55
2021/01/11 06:05:40;;;;;;;7.30;1.80;;;7.20;99.90;;;;;;5117285;28;20039;-55
2021/01/11 06:08:07;;;;;;;3.20;1.13;;;7.20;99.90;;;;;;5117362;28;20056;-55
2021/01/11 06:10:34;;;;;;;4.70;1.00;;;7.20;99.90;;;;;;5117276;28;20019;-55
2021/01/11 06:13:00;;;;;;;6.60;1.33;;;7.20;99.90;;;;;;5117127;28;20367;-55
2021/01/11 06:15:28;;;;;;;3.40;0.93;;;7.10;99.90;;;;;;5098934;28;20051;-55
2021/01/11 06:17:56;;;;;;;4.03;1.10;;;7.20;99.90;;;;;;5098774;28;20337;-55
2021/01/11 06:20:30;;;;;;;4.83;1.30;;;7.10;99.90;;;;;;5116546;28;20027;-55
2021/01/11 06:22:58;;;;;;;3.00;0.82;;;7.10;99.90;;;;;;5117149;28;20076;-55
2021/01/11 06:25:24;;;;;;;4.37;0.90;;;7.10;99.90;;;;;;5117045;28;20048;-55
2021/01/11 06:28:27;;;;;;;4.63;1.27;;;7.00;99.90;;;;;;5116830;28;20468;-55
2021/01/11 06:30:53;;;;;;;7.97;1.53;;;7.10;99.90;;;;;;5116912;28;20019;-55
2021/01/11 06:33:26;;;;;;;3.30;0.90;;;7.10;99.90;;;;;;5117395;28;20027;-55
2021/01/11 06:35:54;;;;;;;9.60;1.52;;;7.10;99.90;;;;;;5116921;28;20109;-55
2021/01/11 06:38:26;;;;;;;6.57;1.47;;;7.20;99.90;;;;;;5117460;28;20027;-55
2021/01/11 06:41:04;;;;;;;4.53;1.77;;;7.10;99.90;;;;;;5098789;28;20023;-55
2021/01/11 06:43:46;;;;;;;7.00;2.30;;;7.10;99.90;;;;;;5117085;28;20376;-55
2021/01/11 06:46:29;;;;;;;7.30;1.90;;;7.10;99.90;;;;;;5117033;28;20024;-55
2021/01/11 06:49:00;;;;;;;8.60;3.20;;;7.00;99.90;;;;;;5116429;28;20135;-55
2021/01/11 06:51:31;;;;;;;3.63;2.23;;;7.00;99.90;;;;;;5116920;28;20046;-55
2021/01/11 06:54:17;;;;;;;6.30;2.27;;;7.00;99.90;;;;;;5116727;28;20503;-56
2021/01/11 06:56:44;;;;;;;4.77;2.13;;;7.10;99.90;;;;;;5099771;28;20027;-55
2021/01/11 06:59:19;;;;;;;5.00;2.23;;;7.00;99.90;;;;;;5120720;28;20024;-55
2021/01/11 07:01:46;;;;;;;5.10;2.27;;;7.00;99.90;;;;;;5121141;28;20028;-55
2021/01/11 07:04:35;;;;;;;6.60;2.10;;;7.00;99.90;;;;;;5120590;28;20157;-55
2021/01/11 07:07:01;;;;;;;5.83;1.77;;;7.00;99.90;;;;;;5120808;28;20187;-55
2021/01/11 07:09:28;;;;;;;8.23;2.20;;;7.10;99.90;;;;;;5120298;28;20052;-55
2021/01/11 07:12:02;;;;;;;7.30;2.13;;;7.10;99.90;;;;;;5102155;28;20030;-55
2021/01/11 07:15:02;;;;;;;6.87;2.00;;;7.10;99.90;;;;;;5120702;28;20043;-55
2021/01/11 07:17:36;;;;;;;5.80;1.90;;;7.10;99.90;;;;;;5120397;28;20023;-55
2021/01/11 07:20:04;;;;;;;4.17;2.23;;;7.10;99.90;;;;;;5115527;28;20096;-55
2021/01/11 07:22:29;;;;;;;6.65;1.70;;;7.10;99.90;;;;;;5100136;28;20028;-55
2021/01/11 07:24:55;;;;;;;6.43;1.30;;;7.10;99.90;;;;;;5099604;28;20478;-55
2021/01/11 07:27:21;;;;;;;9.27;1.90;;;7.10;99.90;;;;;;5099901;28;20039;-56
2021/01/11 07:29:46;;;;;;;3.60;1.00;;;7.10;99.90;;;;;;5100086;28;20096;-56
2021/01/11 07:32:12;;;;;;;5.50;1.57;;;7.10;99.90;;;;;;5081534;28;20028;-56
2021/01/11 07:34:38;;;;;;;5.67;2.10;;;7.10;99.90;;;;;;5099676;28;20028;-56
2021/01/11 07:37:04;;;;;;;6.47;1.47;;;7.10;99.90;;;;;;5099659;28;19920;-55
2021/01/11 07:39:33;;;;;;;4.83;1.50;;;7.10;99.90;;;;;;5099361;28;20426;-56
2021/01/11 07:42:00;;;;;;;6.90;1.20;;;7.10;99.90;;;;;;5099401;28;20024;-55
2021/01/11 07:44:27;;;;;;;8.70;2.13;;;7.00;99.90;;;;;;5099667;28;20035;-56
2021/01/11 07:46:52;;;;;;;3.95;1.70;;;7.00;99.90;;;;;;5099400;28;20342;-55
2021/01/11 07:49:18;;;;;;;7.13;1.20;;;7.00;99.90;;;;;;5099190;28;20023;-55
2021/01/11 07:51:46;;;;;;;3.17;1.50;;;7.00;99.90;;;;;;5099265;28;20027;-55
2021/01/11 07:54:19;;;;;;;5.77;1.57;;;6.90;99.90;;;;;;5099500;28;20107;-55
2021/01/11 07:56:47;;;;;;;;;;;6.90;99.90;;;;;;5100151;28;20047;-55
2021/01/11 07:59:13;;;;;;;4.93;1.67;;;6.90;99.90;;;;;;5098989;28;20306;-55
2021/01/11 08:01:45;;;;;;;6.10;1.30;;;6.90;99.90;;;;;;5099125;28;20035;-55
2021/01/11 08:04:12;;;;;;;2.47;0.90;;;6.90;99.90;;;;;;5099120;28;20505;-55
2021/01/11 08:06:57;;;;;;;6.97;1.93;;;6.80;99.90;;;;;;5098971;28;20426;-55
2021/01/11 08:09:29;;;;;;;6.50;1.70;;;6.90;99.90;;;;;;5098026;28;20054;-56
2021/01/11 08:12:05;;;;;;;4.40;1.20;;;7.00;99.90;;;;;;5099155;28;20020;-55
2021/01/11 08:14:31;;;;;;;2.60;1.33;;;6.90;99.90;;;;;;5098726;28;20430;-55
2021/01/11 08:16:58;;;;;;;4.63;1.30;;;7.00;99.90;;;;;;5098861;28;20024;-55
2021/01/11 08:19:24;;;;;;;3.33;1.47;;;7.00;99.90;;;;;;5099065;28;20035;-55
2021/01/11 08:22:00;;;;;;;4.07;1.17;;;7.00;99.90;;;;;;5118507;28;20031;-55
2021/01/11 08:24:27;;;;;;;4.70;1.27;;;7.10;99.90;;;;;;5119200;28;20106;-55
2021/01/11 08:27:18;;;;;;;3.60;1.17;;;7.10;99.90;;;;;;5100562;28;20344;-55
2021/01/11 08:29:45;;;;;;;8.00;2.10;;;7.00;99.90;;;;;;5119370;28;20425;-55
2021/01/11 08:32:14;;;;;;;6.77;2.00;;;7.20;99.90;;;;;;5118786;28;20140;-54
2021/01/11 08:34:43;;;;;;;3.47;1.30;;;7.20;99.90;;;;;;5118559;28;20100;-55
2021/01/11 08:37:34;;;;;;;2.70;1.70;;;7.10;99.90;;;;;;5118876;28;20055;-55
2021/01/11 08:40:05;;;;;;;4.03;1.97;;;7.10;99.90;;;;;;5118981;28;20031;-55
2021/01/11 08:42:31;;;;;;;6.73;3.53;;;7.20;99.90;;;;;;5118685;28;20031;-55
2021/01/11 08:45:34;;;;;;;11.97;1.60;;;7.20;99.90;;;;;;5118777;28;20422;-54
2021/01/11 08:48:06;;;;;;;8.63;2.53;;;7.20;99.90;;;;;;5118840;28;20027;-54
2021/01/11 08:50:37;;;;;;;5.18;1.73;;;7.10;99.90;;;;;;5118781;28;20019;-54
2021/01/11 08:53:26;;;;;;;5.80;1.93;;;7.30;99.90;;;;;;5118618;28;20144;-55
2021/01/11 08:56:07;;;;;;;5.17;1.90;;;7.30;99.90;;;;;;5100293;28;20433;-55
2021/01/11 08:58:38;;;;;;;7.47;2.20;;;7.30;99.90;;;;;;5118399;28;20379;-56
2021/01/11 09:01:07;;;;;;;4.03;2.10;;;7.50;99.90;;;;;;5116985;28;20019;-60
2021/01/11 09:03:52;;;;;;;5.73;0.97;;;7.40;99.90;;;;;;5097201;28;20027;-59
2021/01/11 09:06:46;;;;;;;12.10;2.27;;;7.30;99.90;;;;;;5116126;28;20111;-58
2021/01/11 09:09:16;;;;;;;;;;;7.40;99.90;;;;;;5116916;28;20089;-58
2021/01/11 09:11:43;;;;;;;7.30;1.70;;;7.40;99.90;;;;;;5115690;28;19910;-58
2021/01/11 09:14:17;;;;;;;5.20;2.00;;;7.50;99.90;;;;;;5116221;28;20034;-57
2021/01/11 09:16:45;;;;;;;6.03;1.37;;;7.40;99.90;;;;;;5115704;28;20023;-59
2021/01/11 09:19:12;;;;;;;4.37;1.30;;;7.50;99.90;;;;;;5115800;28;20114;-57
2021/01/11 09:21:39;;;;;;;5.47;2.60;;;7.50;99.90;;;;;;5100870;28;20042;-56
2021/01/11 09:24:09;;;;;;;3.37;1.20;;;7.60;99.90;;;;;;5097581;28;20032;-56
2021/01/11 09:26:39;;;;;;;4.87;1.53;;;7.50;99.90;;;;;;5105090;28;20337;-56
2021/01/11 09:29:06;;;;;;;7.97;1.33;;;7.60;99.90;;;;;;5114179;28;20030;-56
2021/01/11 09:31:32;;;;;;;5.40;1.00;;;7.50;99.90;;;;;;5104968;28;20054;-56
2021/01/11 09:33:58;;;;;;;3.97;0.90;;;7.50;99.90;;;;;;5114163;28;19947;-56
2021/01/11 09:36:24;;;;;;;4.87;1.37;;;7.50;99.90;;;;;;5109267;28;20086;-58
2021/01/11 09:38:50;;;;;;;5.10;1.20;;;7.60;99.90;;;;;;5100867;28;20441;-57
2021/01/11 09:41:17;;;;;;;4.20;1.25;;;7.60;99.90;;;;;;5084683;28;20023;-57
2021/01/11 09:43:43;;;;;;;3.77;1.20;;;7.70;99.90;;;;;;5110514;28;20069;-57
2021/01/11 09:46:10;;;;;;;6.23;1.90;;;7.70;99.90;;;;;;5103846;28;20035;-57
2021/01/11 09:48:36;;;;;;;7.37;1.30;;;7.70;99.90;;;;;;5106722;28;20504;-59
2021/01/11 09:51:02;;;;;;;5.60;1.73;;;7.70;99.90;;;;;;5103716;28;20028;-59
2021/01/11 09:53:28;;;;;;;5.53;1.50;;;7.70;99.90;;;;;;5096026;28;20103;-59
2021/01/11 09:55:54;;;;;;;6.60;1.90;;;7.60;99.90;;;;;;5098577;28;20111;-59
2021/01/11 09:58:20;;;;;;;8.10;2.00;;;7.60;99.90;;;;;;5097422;28;20453;-60
2021/01/11 10:00:45;;;;;;;7.03;1.23;;;7.50;99.90;;;;;;5098147;28;20039;-58
2021/01/11 10:03:11;;;;;;;5.00;1.40;;;7.50;99.90;;;;;;5095915;28;20024;-59
2021/01/11 10:05:37;;;;;;;5.17;1.23;;;7.50;99.90;;;;;;5099609;28;20024;-59
2021/01/11 10:08:02;;;;;;;7.83;1.70;;;7.50;99.90;;;;;;5095861;28;20063;-58
2021/01/11 10:10:28;;;;;;;3.83;1.70;;;7.50;99.90;;;;;;5097045;28;20026;-61
2021/01/11 10:12:54;;;;;;;4.17;1.07;;;7.60;99.90;;;;;;5108737;27;20059;-57
2021/01/11 10:15:20;;;;;;;2.65;1.00;;;7.60;99.90;;;;;;5097909;28;20035;-57
2021/01/11 10:17:46;;;;;;;4.40;1.20;;;7.60;99.90;;;;;;5094622;28;20104;-57
2021/01/11 10:20:12;;;;;;;4.27;1.00;;;7.70;99.90;;;;;;5100513;28;20030;-56
2021/01/11 10:22:38;;;;;;;4.70;2.30;;;7.80;99.90;;;;;;5115306;28;20035;-56
2021/01/11 10:25:05;;;;;;;4.87;1.00;;;7.90;99.90;;;;;;5115160;28;20038;-56
2021/01/11 10:27:30;;;;;;;2.90;1.00;;;7.90;99.90;;;;;;5115008;28;20415;-57
2021/01/11 10:29:56;;;;;;;5.93;1.10;;;7.90;99.90;;;;;;5114743;28;20034;-57
2021/01/11 10:32:21;;;;;;;4.07;1.20;;;7.90;99.90;;;;;;5113869;28;20338;-57
2021/01/11 10:34:47;;;;;;;5.77;1.20;;;7.80;99.90;;;;;;5095544;28;20379;-57
2021/01/11 10:37:13;;;;;;;4.60;1.20;;;7.80;99.90;;;;;;5114265;28;20056;-57
2021/01/11 10:39:39;;;;;;;4.05;1.10;;;7.90;99.90;;;;;;5096349;28;20429;-56
2021/01/11 10:42:05;;;;;;;5.63;1.17;;;7.90;99.90;;;;;;5115063;28;20374;-57
2021/01/11 10:44:31;;;;;;;3.57;2.07;;;7.90;99.90;;;;;;5096651;28;20035;-57
2021/01/11 10:46:59;;;;;;;6.60;1.70;;;8.00;99.90;;;;;;5114811;28;20031;-57
2021/01/11 10:49:26;;;;;;;7.47;2.10;;;8.00;99.90;;;;;;5095926;28;20117;-58
2021/01/11 10:51:55;;;;;;;8.17;1.93;;;8.00;99.90;;;;;;5114344;28;20020;-57
2021/01/11 10:54:20;;;;;;;3.03;1.20;;;8.10;99.90;;;;;;5114770;28;19907;-58
2021/01/11 10:56:48;;;;;;;6.83;1.80;;;8.00;99.90;;;;;;5114945;28;20031;-58
2021/01/11 10:59:14;;;;;;;10.43;1.70;;;8.00;99.90;;;;;;5114664;28;20062;-57
2021/01/11 11:01:40;;;;;;;3.40;1.20;;;8.00;99.90;;;;;;5096353;28;19947;-58
2021/01/11 11:04:05;;;;;;;7.43;1.83;;;8.00;99.90;;;;;;5109898;28;20070;-58
2021/01/11 11:06:31;;;;;;;8.03;2.47;;;8.10;99.90;;;;;;5101405;28;20348;-58
2021/01/11 11:08:57;;;;;;;5.00;1.93;;;8.10;99.90;;;;;;5114635;28;20046;-57
2021/01/11 11:11:22;;;;;;;7.50;2.23;;;8.10;99.90;;;;;;5104244;28;20039;-57
2021/01/11 11:13:48;;;;;;;6.17;1.83;;;8.10;99.90;;;;;;5076620;28;20109;-57
2021/01/11 11:16:14;;;;;;;7.63;2.67;;;8.10;99.90;;;;;;5098275;28;20345;-57
2021/01/11 11:18:42;;;;;;;9.87;2.27;;;8.10;99.90;;;;;;5080426;28;20034;-57
2021/01/11 11:21:08;;;;;;;8.57;2.73;;;8.10;99.90;;;;;;5100793;28;20036;-58
2021/01/11 11:23:35;;;;;;;6.10;2.27;;;8.30;99.90;;;;;;5106131;28;20071;-56
2021/01/11 11:26:02;;;;;;;7.07;1.33;;;8.30;99.90;;;;;;5126612;28;20413;-56
2021/01/11 11:28:29;;;;;;;7.20;2.10;;;8.40;99.90;;;;;;5123272;28;20027;-57
2021/01/11 11:30:56;;;;;;;7.53;1.97;;;8.60;99.90;;;;;;5113889;28;20024;-57
2021/01/11 11:33:21;;;;;;;;;;;8.70;99.90;;;;;;5103577;28;20028;-58
2021/01/11 11:35:47;;;;;;;;;;;8.70;99.90;;;;;;5101184;28;19927;-57
2021/01/11 11:38:12;;;;;;;;;;;8.80;99.90;;;;;;5097792;28;19935;-59
2021/01/11 11:40:39;;;;;;;;;;;8.90;99.90;;;;;;5082636;28;19938;-58
2021/01/11 11:43:05;;;;;;;;;;;9.10;99.90;;;;;;5103606;28;20000;-58
2021/01/11 11:45:31;;;;;;;;;;;9.10;99.90;;;;;;5107221;28;19957;-60
2021/01/11 11:47:57;;;;;;;;;;;9.10;99.90;;;;;;5109560;27;19977;-59
2021/01/11 11:50:23;;;;;;;;;;;9.20;99.90;;;;;;5096786;28;20324;-59
2021/01/11 11:52:48;;;;;;;;;;;9.20;99.90;;;;;;5116840;28;20341;-59
2021/01/11 11:55:14;;;;;;;;;;;9.20;99.90;;;;;;5112932;28;20569;-59
2021/01/11 11:57:43;;;;;;;;;;;9.10;99.90;;;;;;5096407;28;20295;-59
2021/01/11 12:00:10;;;;;;;;;;;8.90;99.90;;;;;;5096065;28;20439;-59
2021/01/11 12:02:35;;;;;;;;;;;8.90;99.90;;;;;;5096056;28;19908;-59
2021/01/11 12:05:01;;;;;;;;;;;8.80;99.90;;;;;;5096634;28;19908;-59
2021/01/11 12:07:27;;;;;;;;;;;8.80;99.90;;;;;;5113072;28;19915;-58
2021/01/11 12:09:54;;;;;;;;;;;8.80;99.90;;;;;;5115959;28;19914;-58
2021/01/11 12:12:20;;;;;;;;;;;8.70;99.90;;;;;;5113316;28;19916;-58
2021/01/11 12:14:45;;;;;;;;;;;8.70;99.90;;;;;;5109918;28;19915;-59
2021/01/11 12:17:11;;;;;;;;;;;8.60;99.90;;;;;;5098496;28;20334;-59
2021/01/11 12:19:36;;;;;;;;;;;8.60;99.90;;;;;;5106463;28;19936;-59
2021/01/11 12:22:06;;;;;;;;;;;8.80;99.90;;;;;;5100745;28;20030;-59
2021/01/11 12:24:32;;;;;;;;;;;8.60;99.90;;;;;;5104918;28;19908;-59
2021/01/11 12:26:57;;;;;;;;;;;8.60;99.90;;;;;;5110820;28;19912;-58
2021/01/11 12:29:23;;;;;;;;;;;8.60;99.90;;;;;;5103733;28;19969;-59
2021/01/11 12:31:50;;;;;;;;;;;8.30;99.90;;;;;;5118388;27;19912;-60
2021/01/11 12:34:16;;;;;;;;;;;8.20;99.90;;;;;;5100533;28;20069;-59
2021/01/11 12:36:41;;;;;;;;;;;8.10;99.90;;;;;;5106314;27;19920;-58
2021/01/11 12:39:08;;;;;;;;;;;8.10;99.90;;;;;;5105180;28;19912;-58
2021/01/11 12:41:34;;;;;;;;;;;8.20;99.90;;;;;;5095242;28;19922;-58
2021/01/11 12:43:59;;;;;;;;;;;8.30;99.90;;;;;;5104600;28;19912;-58
2021/01/11 12:46:25;;;;;;;;;;;8.30;99.90;;;;;;5100967;28;19916;-58
2021/01/11 12:48:51;;;;;;;;;;;8.40;99.90;;;;;;5105555;28;20322;-58
2021/01/11 12:51:17;;;;;;;;;;;8.30;99.90;;;;;;5105780;28;19919;-59
2021/01/11 12:53:46;;;;;;;;;;;8.20;99.90;;;;;;5107818;28;19903;-58
2021/01/11 12:56:16;;;;;;;;;;;8.30;99.90;;;;;;5105138;28;19911;-58
2021/01/11 12:58:41;;;;;;;;;;;8.30;99.90;;;;;;5105194;28;19911;-58
2021/01/11 13:01:07;;;;;;;;;;;8.30;99.90;;;;;;5106096;28;19904;-59
2021/01/11 13:03:33;;;;;;;;;;;8.30;99.90;;;;;;5106507;28;20326;-58
2021/01/11 13:05:59;;;;;;;;;;;8.30;99.90;;;;;;5105082;28;19920;-59
2021/01/11 13:08:24;;;;;;;;;;;8.20;99.90;;;;;;5106416;28;19914;-59
2021/01/11 13:10:51;;;;;;;;;;;8.30;99.90;;;;;;5106269;28;19927;-59
2021/01/11 13:13:16;;;;;;;;;;;8.30;99.90;;;;;;5106188;28;19927;-59
2021/01/11 13:15:44;;;;;;;;;;;8.20;99.90;;;;;;5095139;28;19915;-59
2021/01/11 13:18:09;;;;;;;;;;;8.20;99.90;;;;;;5103088;28;19917;-59